sensor_id;sensor_type;location;lat;lon;timestamp;pressure;altitude;pressure_sealevel;temperature;humidity
17635;BME280;8936;49.010;12.120;2023-08-06T00:01:49;97092.34;;;20.20;100.00
17635;BME280;8936;49.010;12.120;2023-08-06T00:04:16;97094.53;;;20.14;100.00
17635;BME280;8936;49.010;12.120;2023-08-06T00:06:42;97088.41;;;20.17;100.00
17635;BME280;8936;49.010;12.120;2023-08-06T00:09:09;97093.63;;;20.10;100.00
17635;BME280;8936;49.010;12.120;2023-08-06T00:11:36;97085.59;;;20.14;100.00
17635;BME280;8936;49.010;12.120;2023-08-06T00:14:03;97076.41;;;20.18;100.00
17635;BME280;8936;49.010;12.120;2023-08-06T00:16:29;97079.03;;;20.27;100.00
17635;BME280;8936;49.010;12.120;2023-08-06T00:18:55;97075.97;;;20.28;100.00
17635;BME280;8936;49.010;12.120;2023-08-06T00:21:22;97080.50;;;20.12;100.00
17635;BME280;8936;49.010;12.120;2023-08-06T00:23:48;97081.72;;;20.15;100.00
17635;BME280;8936;49.010;12.120;2023-08-06T00:26:14;97081.84;;;20.18;100.00
17635;BME280;8936;49.010;12.120;2023-08-06T00:28:42;97082.31;;;20.20;100.00
17635;BME280;8936;49.010;12.120;2023-08-06T00:31:08;97089.78;;;20.11;100.00
17635;BME280;8936;49.010;12.120;2023-08-06T00:33:35;97082.31;;;20.20;100.00
17635;BME280;8936;49.010;12.120;2023-08-06T00:36:01;97091.00;;;20.26;100.00
17635;BME280;8936;49.010;12.120;2023-08-06T00:38:27;97094.94;;;20.28;100.00
17635;BME280;8936;49.010;12.120;2023-08-06T00:40:54;97087.69;;;20.32;100.00
17635;BME280;8936;49.010;12.120;2023-08-06T00:43:20;97088.13;;;20.34;100.00
17635;BME280;8936;49.010;12.120;2023-08-06T00:45:48;97097.56;;;20.13;100.00
17635;BME280;8936;49.010;12.120;2023-08-06T00:48:14;97093.25;;;20.24;100.00
17635;BME280;8936;49.010;12.120;2023-08-06T00:50:41;97084.09;;;20.28;100.00
17635;BME280;8936;49.010;12.120;2023-08-06T00:53:07;97076.13;;;20.08;100.00
17635;BME280;8936;49.010;12.120;2023-08-06T00:55:34;97077.34;;;20.10;100.00
17635;BME280;8936;49.010;12.120;2023-08-06T00:58:01;97076.66;;;20.13;100.00
17635;BME280;8936;49.010;12.120;2023-08-06T01:00:27;97086.81;;;20.16;100.00
17635;BME280;8936;49.010;12.120;2023-08-06T01:02:55;97080.06;;;20.10;100.00
17635;BME280;8936;49.010;12.120;2023-08-06T01:05:21;97082.63;;;20.19;100.00
17635;BME280;8936;49.010;12.120;2023-08-06T01:07:51;97079.59;;;20.20;100.00
17635;BME280;8936;49.010;12.120;2023-08-06T01:10:21;97083.16;;;20.24;100.00
17635;BME280;8936;49.010;12.120;2023-08-06T01:12:51;97080.16;;;20.26;100.00
17635;BME280;8936;49.010;12.120;2023-08-06T01:15:22;97075.03;;;20.24;100.00
17635;BME280;8936;49.010;12.120;2023-08-06T01:17:49;97070.31;;;20.21;100.00
17635;BME280;8936;49.010;12.120;2023-08-06T01:20:17;97070.47;;;20.13;100.00
17635;BME280;8936;49.010;12.120;2023-08-06T01:22:45;97071.03;;;20.06;100.00
17635;BME280;8936;49.010;12.120;2023-08-06T01:25:11;97060.19;;;20.06;100.00
17635;BME280;8936;49.010;12.120;2023-08-06T01:27:42;97064.06;;;20.05;100.00
17635;BME280;8936;49.010;12.120;2023-08-06T01:30:12;97055.56;;;20.07;100.00
17635;BME280;8936;49.010;12.120;2023-08-06T01:32:38;97050.59;;;20.09;100.00
17635;BME280;8936;49.010;12.120;2023-08-06T01:35:05;97051.63;;;20.04;100.00
17635;BME280;8936;49.010;12.120;2023-08-06T01:37:32;97055.81;;;20.02;100.00
17635;BME280;8936;49.010;12.120;2023-08-06T01:40:00;97064.59;;;19.83;100.00
17635;BME280;8936;49.010;12.120;2023-08-06T01:42:26;97071.53;;;19.44;100.00
17635;BME280;8936;49.010;12.120;2023-08-06T01:44:52;97068.69;;;19.28;100.00
17635;BME280;8936;49.010;12.120;2023-08-06T01:47:19;97068.69;;;19.28;100.00
17635;BME280;8936;49.010;12.120;2023-08-06T01:49:45;97084.81;;;19.25;100.00
17635;BME280;8936;49.010;12.120;2023-08-06T01:52:12;97077.94;;;19.15;100.00
17635;BME280;8936;49.010;12.120;2023-08-06T01:54:38;97077.34;;;19.22;100.00
17635;BME280;8936;49.010;12.120;2023-08-06T01:57:06;97067.56;;;19.17;100.00
17635;BME280;8936;49.010;12.120;2023-08-06T01:59:32;97065.66;;;19.18;100.00
17635;BME280;8936;49.010;12.120;2023-08-06T02:01:59;97051.78;;;19.19;100.00
17635;BME280;8936;49.010;12.120;2023-08-06T02:04:25;97064.06;;;18.93;100.00
17635;BME280;8936;49.010;12.120;2023-08-06T02:06:51;97065.97;;;18.92;100.00
17635;BME280;8936;49.010;12.120;2023-08-06T02:09:18;97050.78;;;19.12;100.00
17635;BME280;8936;49.010;12.120;2023-08-06T02:11:44;97050.22;;;19.06;100.00
17635;BME280;8936;49.010;12.120;2023-08-06T02:14:12;97038.03;;;19.12;100.00
17635;BME280;8936;49.010;12.120;2023-08-06T02:16:38;97042.28;;;19.25;100.00
17635;BME280;8936;49.010;12.120;2023-08-06T02:19:04;97046.56;;;19.38;100.00
17635;BME280;8936;49.010;12.120;2023-08-06T02:21:31;97046.94;;;19.49;100.00
17635;BME280;8936;49.010;12.120;2023-08-06T02:23:57;97046.25;;;19.52;100.00
17635;BME280;8936;49.010;12.120;2023-08-06T02:26:23;97049.97;;;19.48;100.00
17635;BME280;8936;49.010;12.120;2023-08-06T02:28:50;97047.63;;;19.46;100.00
17635;BME280;8936;49.010;12.120;2023-08-06T02:31:17;97034.16;;;19.50;100.00
17635;BME280;8936;49.010;12.120;2023-08-06T02:33:44;97033.97;;;19.43;100.00
17635;BME280;8936;49.010;12.120;2023-08-06T02:36:10;97025.97;;;19.46;100.00
17635;BME280;8936;49.010;12.120;2023-08-06T02:38:36;97023.69;;;19.48;100.00
17635;BME280;8936;49.010;12.120;2023-08-06T02:41:03;97034.63;;;19.52;100.00
17635;BME280;8936;49.010;12.120;2023-08-06T02:43:29;97033.03;;;19.38;100.00
17635;BME280;8936;49.010;12.120;2023-08-06T02:45:56;97039.13;;;19.48;100.00
17635;BME280;8936;49.010;12.120;2023-08-06T02:48:24;97038.22;;;19.44;100.00
17635;BME280;8936;49.010;12.120;2023-08-06T02:50:50;97027.06;;;19.33;100.00
17635;BME280;8936;49.010;12.120;2023-08-06T02:53:16;97027.41;;;19.44;100.00
17635;BME280;8936;49.010;12.120;2023-08-06T02:55:45;97030.69;;;19.49;100.00
17635;BME280;8936;49.010;12.120;2023-08-06T02:58:11;97026.41;;;19.48;100.00
17635;BME280;8936;49.010;12.120;2023-08-06T03:00:38;97032.50;;;19.45;100.00
17635;BME280;8936;49.010;12.120;2023-08-06T03:03:04;97033.72;;;19.35;100.00
17635;BME280;8936;49.010;12.120;2023-08-06T03:05:32;97038.16;;;19.40;100.00
17635;BME280;8936;49.010;12.120;2023-08-06T03:07:58;97030.78;;;19.40;100.00
17635;BME280;8936;49.010;12.120;2023-08-06T03:10:24;97039.25;;;19.39;100.00
17635;BME280;8936;49.010;12.120;2023-08-06T03:12:51;97039.56;;;19.37;100.00
17635;BME280;8936;49.010;12.120;2023-08-06T03:15:17;97040.50;;;19.42;100.00
17635;BME280;8936;49.010;12.120;2023-08-06T03:17:43;97032.38;;;19.17;100.00
17635;BME280;8936;49.010;12.120;2023-08-06T03:20:10;97032.72;;;19.28;100.00
17635;BME280;8936;49.010;12.120;2023-08-06T03:22:38;97029.22;;;19.27;100.00
17635;BME280;8936;49.010;12.120;2023-08-06T03:25:04;97026.50;;;19.27;100.00
17635;BME280;8936;49.010;12.120;2023-08-06T03:27:31;97026.53;;;19.15;100.00
17635;BME280;8936;49.010;12.120;2023-08-06T03:29:57;97026.06;;;19.01;100.00
17635;BME280;8936;49.010;12.120;2023-08-06T03:32:25;97025.06;;;18.94;100.00
17635;BME280;8936;49.010;12.120;2023-08-06T03:34:51;97017.84;;;18.98;100.00
17635;BME280;8936;49.010;12.120;2023-08-06T03:37:18;97020.31;;;19.15;100.00
17635;BME280;8936;49.010;12.120;2023-08-06T03:39:45;97033.72;;;19.23;100.00
17635;BME280;8936;49.010;12.120;2023-08-06T03:42:12;97021.31;;;19.22;100.00
17635;BME280;8936;49.010;12.120;2023-08-06T03:44:38;97019.84;;;19.25;100.00
17635;BME280;8936;49.010;12.120;2023-08-06T03:47:05;97023.34;;;19.25;100.00
17635;BME280;8936;49.010;12.120;2023-08-06T03:49:31;97015.91;;;19.22;100.00
17635;BME280;8936;49.010;12.120;2023-08-06T03:51:58;97018.63;;;19.10;100.00
17635;BME280;8936;49.010;12.120;2023-08-06T03:54:24;97026.06;;;19.01;100.00
17635;BME280;8936;49.010;12.120;2023-08-06T03:56:52;97036.66;;;18.94;100.00
17635;BME280;8936;49.010;12.120;2023-08-06T03:59:18;97027.97;;;18.88;100.00
17635;BME280;8936;49.010;12.120;2023-08-06T04:01:44;97022.56;;;18.88;100.00
17635;BME280;8936;49.010;12.120;2023-08-06T04:04:11;97025.94;;;18.85;100.00
17635;BME280;8936;49.010;12.120;2023-08-06T04:06:37;97029.13;;;19.00;100.00
17635;BME280;8936;49.010;12.120;2023-08-06T04:09:03;97025.84;;;18.94;100.00
17635;BME280;8936;49.010;12.120;2023-08-06T04:11:30;97031.47;;;18.77;100.00
17635;BME280;8936;49.010;12.120;2023-08-06T04:13:57;97031.25;;;18.94;100.00
17635;BME280;8936;49.010;12.120;2023-08-06T04:16:23;97030.34;;;18.90;100.00
17635;BME280;8936;49.010;12.120;2023-08-06T04:18:51;97029.88;;;19.00;100.00
17635;BME280;8936;49.010;12.120;2023-08-06T04:21:18;97030.13;;;18.83;100.00
17635;BME280;8936;49.010;12.120;2023-08-06T04:23:44;97029.22;;;18.91;100.00
17635;BME280;8936;49.010;12.120;2023-08-06T04:26:11;97034.03;;;18.61;100.00
17635;BME280;8936;49.010;12.120;2023-08-06T04:28:37;97025.38;;;18.80;100.00
17635;BME280;8936;49.010;12.120;2023-08-06T04:31:05;97023.00;;;18.78;100.00
17635;BME280;8936;49.010;12.120;2023-08-06T04:33:31;97029.69;;;18.93;100.00
17635;BME280;8936;49.010;12.120;2023-08-06T04:35:57;97017.94;;;19.01;100.00
17635;BME280;8936;49.010;12.120;2023-08-06T04:38:24;97028.88;;;18.93;100.00
17635;BME280;8936;49.010;12.120;2023-08-06T04:40:51;97015.13;;;18.98;100.00
17635;BME280;8936;49.010;12.120;2023-08-06T04:43:17;97008.91;;;18.97;100.00
17635;BME280;8936;49.010;12.120;2023-08-06T04:45:45;97007.59;;;19.03;100.00
17635;BME280;8936;49.010;12.120;2023-08-06T04:48:13;97011.53;;;19.06;100.00
17635;BME280;8936;49.010;12.120;2023-08-06T04:50:42;97010.97;;;19.12;100.00
17635;BME280;8936;49.010;12.120;2023-08-06T04:53:09;97007.13;;;19.13;100.00
17635;BME280;8936;49.010;12.120;2023-08-06T04:55:35;96999.25;;;19.08;100.00
17635;BME280;8936;49.010;12.120;2023-08-06T04:58:01;97000.72;;;19.06;100.00
17635;BME280;8936;49.010;12.120;2023-08-06T05:00:28;97006.22;;;19.09;100.00
17635;BME280;8936;49.010;12.120;2023-08-06T05:02:54;97002.94;;;19.04;100.00
17635;BME280;8936;49.010;12.120;2023-08-06T05:05:22;97003.31;;;19.02;100.00
17635;BME280;8936;49.010;12.120;2023-08-06T05:07:49;97008.91;;;18.97;100.00
17635;BME280;8936;49.010;12.120;2023-08-06T05:10:15;96996.66;;;19.00;100.00
17635;BME280;8936;49.010;12.120;2023-08-06T05:12:42;96989.53;;;18.95;100.00
17635;BME280;8936;49.010;12.120;2023-08-06T05:15:08;96993.28;;;18.91;100.00
17635;BME280;8936;49.010;12.120;2023-08-06T05:17:35;96994.84;;;18.79;100.00
17635;BME280;8936;49.010;12.120;2023-08-06T05:20:01;96996.78;;;19.03;100.00
17635;BME280;8936;49.010;12.120;2023-08-06T05:22:29;96998.78;;;18.82;100.00
17635;BME280;8936;49.010;12.120;2023-08-06T05:24:55;97007.94;;;18.90;100.00
17635;BME280;8936;49.010;12.120;2023-08-06T05:27:22;96999.00;;;19.01;100.00
17635;BME280;8936;49.010;12.120;2023-08-06T05:29:48;96997.22;;;19.05;100.00
17635;BME280;8936;49.010;12.120;2023-08-06T05:32:14;96995.50;;;18.76;100.00
17635;BME280;8936;49.010;12.120;2023-08-06T05:34:41;97002.84;;;18.76;100.00
17635;BME280;8936;49.010;12.120;2023-08-06T05:37:07;97009.47;;;18.66;100.00
17635;BME280;8936;49.010;12.120;2023-08-06T05:39:35;97006.00;;;18.78;100.00
17635;BME280;8936;49.010;12.120;2023-08-06T05:42:02;97009.22;;;18.47;100.00
17635;BME280;8936;49.010;12.120;2023-08-06T05:44:28;97004.78;;;18.43;100.00
17635;BME280;8936;49.010;12.120;2023-08-06T05:46:55;97004.31;;;18.28;100.00
17635;BME280;8936;49.010;12.120;2023-08-06T05:49:21;97007.72;;;18.38;100.00
17635;BME280;8936;49.010;12.120;2023-08-06T05:51:48;97005.31;;;18.57;100.00
17635;BME280;8936;49.010;12.120;2023-08-06T05:54:14;97014.88;;;18.66;100.00
17635;BME280;8936;49.010;12.120;2023-08-06T05:56:42;97002.63;;;18.81;100.00
17635;BME280;8936;49.010;12.120;2023-08-06T05:59:08;96999.13;;;18.68;100.00
17635;BME280;8936;49.010;12.120;2023-08-06T06:01:34;97002.94;;;18.67;100.00
17635;BME280;8936;49.010;12.120;2023-08-06T06:04:01;97003.06;;;18.71;100.00
17635;BME280;8936;49.010;12.120;2023-08-06T06:06:27;96998.16;;;18.07;100.00
17635;BME280;8936;49.010;12.120;2023-08-06T06:08:53;96995.06;;;18.50;100.00
17635;BME280;8936;49.010;12.120;2023-08-06T06:11:20;97002.38;;;18.62;100.00
17635;BME280;8936;49.010;12.120;2023-08-06T06:13:48;96993.38;;;18.70;100.00
17635;BME280;8936;49.010;12.120;2023-08-06T06:16:15;96987.22;;;18.49;100.00
17635;BME280;8936;49.010;12.120;2023-08-06T06:18:41;96988.31;;;18.56;100.00
17635;BME280;8936;49.010;12.120;2023-08-06T06:21:07;96988.06;;;18.61;100.00
17635;BME280;8936;49.010;12.120;2023-08-06T06:23:34;96991.47;;;18.70;100.00
17635;BME280;8936;49.010;12.120;2023-08-06T06:26:00;96981.19;;;18.76;100.00
17635;BME280;8936;49.010;12.120;2023-08-06T06:28:26;96984.38;;;18.78;100.00
17635;BME280;8936;49.010;12.120;2023-08-06T06:30:59;96977.03;;;18.78;100.00
17635;BME280;8936;49.010;12.120;2023-08-06T06:33:25;96974.91;;;18.72;100.00
17635;BME280;8936;49.010;12.120;2023-08-06T06:35:52;96989.09;;;18.81;100.00
17635;BME280;8936;49.010;12.120;2023-08-06T06:38:18;96987.41;;;18.76;100.00
17635;BME280;8936;49.010;12.120;2023-08-06T06:40:52;96975.59;;;18.81;100.00
17635;BME280;8936;49.010;12.120;2023-08-06T06:43:19;96974.00;;;18.80;100.00
17635;BME280;8936;49.010;12.120;2023-08-06T06:45:45;96969.38;;;18.93;100.00
17635;BME280;8936;49.010;12.120;2023-08-06T06:48:13;96980.38;;;18.51;100.00
17635;BME280;8936;49.010;12.120;2023-08-06T06:50:39;96964.09;;;18.27;100.00
17635;BME280;8936;49.010;12.120;2023-08-06T06:53:06;96972.13;;;18.35;100.00
17635;BME280;8936;49.010;12.120;2023-08-06T06:55:32;96974.69;;;18.32;100.00
17635;BME280;8936;49.010;12.120;2023-08-06T06:57:58;96978.88;;;18.29;100.00
17635;BME280;8936;49.010;12.120;2023-08-06T07:00:25;96957.78;;;18.68;100.00
17635;BME280;8936;49.010;12.120;2023-08-06T07:02:51;96964.75;;;18.93;100.00
17635;BME280;8936;49.010;12.120;2023-08-06T07:05:19;96964.28;;;18.91;100.00
17635;BME280;8936;49.010;12.120;2023-08-06T07:07:45;96973.56;;;18.78;100.00
17635;BME280;8936;49.010;12.120;2023-08-06T07:10:11;96970.25;;;18.60;100.00
17635;BME280;8936;49.010;12.120;2023-08-06T07:12:38;96970.06;;;18.65;100.00
17635;BME280;8936;49.010;12.120;2023-08-06T07:15:05;96956.84;;;18.88;100.00
17635;BME280;8936;49.010;12.120;2023-08-06T07:17:32;96963.19;;;18.80;100.00
17635;BME280;8936;49.010;12.120;2023-08-06T07:19:58;96960.22;;;18.97;100.00
17635;BME280;8936;49.010;12.120;2023-08-06T07:22:26;96960.44;;;19.04;100.00
17635;BME280;8936;49.010;12.120;2023-08-06T07:24:52;96964.09;;;18.72;100.00
17635;BME280;8936;49.010;12.120;2023-08-06T07:27:18;96958.88;;;19.03;100.00
17635;BME280;8936;49.010;12.120;2023-08-06T07:29:45;96962.25;;;19.00;100.00
17635;BME280;8936;49.010;12.120;2023-08-06T07:32:11;96962.72;;;19.02;100.00
17635;BME280;8936;49.010;12.120;2023-08-06T07:34:37;96959.31;;;19.17;100.00
17635;BME280;8936;49.010;12.120;2023-08-06T07:37:04;96956.34;;;19.22;100.00
17635;BME280;8936;49.010;12.120;2023-08-06T07:39:32;96963.31;;;19.35;100.00
17635;BME280;8936;49.010;12.120;2023-08-06T07:41:58;96949.09;;;19.38;100.00
17635;BME280;8936;49.010;12.120;2023-08-06T07:44:25;96943.25;;;19.49;100.00
17635;BME280;8936;49.010;12.120;2023-08-06T07:46:51;96946.41;;;19.38;100.00
17635;BME280;8936;49.010;12.120;2023-08-06T07:49:17;96936.75;;;19.13;100.00
17635;BME280;8936;49.010;12.120;2023-08-06T07:51:44;96950.47;;;19.32;100.00
17635;BME280;8936;49.010;12.120;2023-08-06T07:54:10;96931.88;;;19.43;100.00
17635;BME280;8936;49.010;12.120;2023-08-06T07:56:38;96934.91;;;19.42;100.00
17635;BME280;8936;49.010;12.120;2023-08-06T07:59:04;96935.44;;;19.47;100.00
17635;BME280;8936;49.010;12.120;2023-08-06T08:01:30;96931.94;;;19.59;100.00
17635;BME280;8936;49.010;12.120;2023-08-06T08:03:57;96925.84;;;19.50;100.00
17635;BME280;8936;49.010;12.120;2023-08-06T08:06:23;96931.25;;;19.50;100.00
17635;BME280;8936;49.010;12.120;2023-08-06T08:08:49;96928.72;;;19.29;100.00
17635;BME280;8936;49.010;12.120;2023-08-06T08:11:17;96925.56;;;19.27;100.00
17635;BME280;8936;49.010;12.120;2023-08-06T08:13:45;96928.13;;;19.35;100.00
17635;BME280;8936;49.010;12.120;2023-08-06T08:16:11;96936.94;;;19.32;100.00
17635;BME280;8936;49.010;12.120;2023-08-06T08:18:37;96933.09;;;19.33;100.00
17635;BME280;8936;49.010;12.120;2023-08-06T08:21:04;96932.56;;;19.40;100.00
17635;BME280;8936;49.010;12.120;2023-08-06T08:23:30;96926.41;;;19.55;100.00
17635;BME280;8936;49.010;12.120;2023-08-06T08:25:57;96935.06;;;19.61;100.00
17635;BME280;8936;49.010;12.120;2023-08-06T08:28:24;96926.28;;;20.85;100.00
17635;BME280;8936;49.010;12.120;2023-08-06T08:30:51;96931.31;;;21.18;100.00
17635;BME280;8936;49.010;12.120;2023-08-06T08:33:18;96943.56;;;21.28;100.00
17635;BME280;8936;49.010;12.120;2023-08-06T08:35:45;96936.09;;;20.43;100.00
17635;BME280;8936;49.010;12.120;2023-08-06T08:38:12;96922.47;;;21.40;100.00
17635;BME280;8936;49.010;12.120;2023-08-06T08:40:40;96922.91;;;22.23;100.00
17635;BME280;8936;49.010;12.120;2023-08-06T08:43:09;96928.03;;;22.50;100.00
17635;BME280;8936;49.010;12.120;2023-08-06T08:45:36;96918.31;;;22.04;100.00
17635;BME280;8936;49.010;12.120;2023-08-06T08:48:06;96921.84;;;20.30;100.00
17635;BME280;8936;49.010;12.120;2023-08-06T08:50:33;96918.94;;;20.23;100.00
17635;BME280;8936;49.010;12.120;2023-08-06T08:52:59;96919.25;;;20.06;100.00
17635;BME280;8936;49.010;12.120;2023-08-06T08:55:26;96916.91;;;20.05;100.00
17635;BME280;8936;49.010;12.120;2023-08-06T08:57:53;96909.47;;;21.49;100.00
17635;BME280;8936;49.010;12.120;2023-08-06T09:00:19;96911.66;;;22.01;100.00
17635;BME280;8936;49.010;12.120;2023-08-06T09:02:46;96910.53;;;22.02;100.00
17635;BME280;8936;49.010;12.120;2023-08-06T09:05:14;96915.34;;;22.58;100.00
17635;BME280;8936;49.010;12.120;2023-08-06T09:07:41;96903.03;;;22.90;100.00
17635;BME280;8936;49.010;12.120;2023-08-06T09:10:09;96897.59;;;22.90;100.00
17635;BME280;8936;49.010;12.120;2023-08-06T09:12:37;96900.66;;;21.75;100.00
17635;BME280;8936;49.010;12.120;2023-08-06T09:15:04;96892.59;;;22.43;100.00
17635;BME280;8936;49.010;12.120;2023-08-06T09:17:30;96898.16;;;23.03;100.00
17635;BME280;8936;49.010;12.120;2023-08-06T09:19:56;96883.81;;;23.06;100.00
17635;BME280;8936;49.010;12.120;2023-08-06T09:22:24;96885.06;;;23.12;100.00
17635;BME280;8936;49.010;12.120;2023-08-06T09:24:51;96878.94;;;23.82;100.00
17635;BME280;8936;49.010;12.120;2023-08-06T09:27:17;96881.28;;;21.77;100.00
17635;BME280;8936;49.010;12.120;2023-08-06T09:29:44;96875.03;;;21.76;100.00
17635;BME280;8936;49.010;12.120;2023-08-06T09:32:10;96869.59;;;21.34;100.00
17635;BME280;8936;49.010;12.120;2023-08-06T09:34:38;96865.03;;;21.38;100.00
17635;BME280;8936;49.010;12.120;2023-08-06T09:37:04;96877.94;;;20.91;100.00
17635;BME280;8936;49.010;12.120;2023-08-06T09:39:32;96863.94;;;22.53;100.00
17635;BME280;8936;49.010;12.120;2023-08-06T09:41:59;96870.50;;;23.27;100.00
17635;BME280;8936;49.010;12.120;2023-08-06T09:44:29;96856.34;;;23.18;100.00
17635;BME280;8936;49.010;12.120;2023-08-06T09:46:56;96863.44;;;23.93;100.00
17635;BME280;8936;49.010;12.120;2023-08-06T09:49:25;96861.94;;;23.99;98.88
17635;BME280;8936;49.010;12.120;2023-08-06T09:51:52;96862.88;;;22.57;100.00
17635;BME280;8936;49.010;12.120;2023-08-06T09:54:22;96895.88;;;21.49;100.00
17635;BME280;8936;49.010;12.120;2023-08-06T09:56:50;96887.97;;;21.06;100.00
17635;BME280;8936;49.010;12.120;2023-08-06T09:59:17;96886.75;;;20.69;100.00
17635;BME280;8936;49.010;12.120;2023-08-06T10:01:43;96890.34;;;22.49;100.00
17635;BME280;8936;49.010;12.120;2023-08-06T10:04:09;96880.44;;;23.16;100.00
17635;BME280;8936;49.010;12.120;2023-08-06T10:06:37;96894.06;;;23.42;100.00
17635;BME280;8936;49.010;12.120;2023-08-06T10:09:04;96886.75;;;23.50;100.00
17635;BME280;8936;49.010;12.120;2023-08-06T10:11:30;96887.19;;;23.55;100.00
17635;BME280;8936;49.010;12.120;2023-08-06T10:14:00;96882.09;;;23.24;100.00
17635;BME280;8936;49.010;12.120;2023-08-06T10:16:28;96893.03;;;23.54;100.00
17635;BME280;8936;49.010;12.120;2023-08-06T10:18:55;96880.16;;;23.25;100.00
17635;BME280;8936;49.010;12.120;2023-08-06T10:21:23;96884.91;;;22.26;100.00
17635;BME280;8936;49.010;12.120;2023-08-06T10:23:53;96882.00;;;21.74;100.00
17635;BME280;8936;49.010;12.120;2023-08-06T10:26:20;96886.84;;;22.75;100.00
17635;BME280;8936;49.010;12.120;2023-08-06T10:28:46;96885.88;;;23.42;100.00
17635;BME280;8936;49.010;12.120;2023-08-06T10:31:14;96885.00;;;23.68;100.00
17635;BME280;8936;49.010;12.120;2023-08-06T10:33:44;96888.56;;;23.72;100.00
17635;BME280;8936;49.010;12.120;2023-08-06T10:36:10;96891.25;;;23.39;100.00
17635;BME280;8936;49.010;12.120;2023-08-06T10:38:43;96888.59;;;23.42;100.00
17635;BME280;8936;49.010;12.120;2023-08-06T10:41:14;96886.56;;;23.69;100.00
17635;BME280;8936;49.010;12.120;2023-08-06T10:43:41;96880.91;;;23.85;100.00
17635;BME280;8936;49.010;12.120;2023-08-06T10:46:09;96878.69;;;22.75;100.00
17635;BME280;8936;49.010;12.120;2023-08-06T10:48:37;96884.53;;;21.86;100.00
17635;BME280;8936;49.010;12.120;2023-08-06T10:51:07;96872.00;;;21.39;100.00
17635;BME280;8936;49.010;12.120;2023-08-06T10:53:33;96876.63;;;23.21;100.00
17635;BME280;8936;49.010;12.120;2023-08-06T10:56:00;96866.41;;;23.77;100.00
17635;BME280;8936;49.010;12.120;2023-08-06T10:58:30;96870.44;;;23.90;100.00
17635;BME280;8936;49.010;12.120;2023-08-06T11:00:57;96875.16;;;23.93;100.00
17635;BME280;8936;49.010;12.120;2023-08-06T11:03:23;96868.59;;;23.98;100.00
17635;BME280;8936;49.010;12.120;2023-08-06T11:05:51;96866.50;;;23.21;100.00
17635;BME280;8936;49.010;12.120;2023-08-06T11:08:22;96865.63;;;22.84;100.00
17635;BME280;8936;49.010;12.120;2023-08-06T11:10:49;96871.28;;;23.94;100.00
17635;BME280;8936;49.010;12.120;2023-08-06T11:13:16;96866.00;;;24.12;100.00
17635;BME280;8936;49.010;12.120;2023-08-06T11:15:42;96870.78;;;24.22;100.00
17635;BME280;8936;49.010;12.120;2023-08-06T11:18:09;96875.66;;;24.06;100.00
17635;BME280;8936;49.010;12.120;2023-08-06T11:20:36;96864.50;;;24.18;100.00
17635;BME280;8936;49.010;12.120;2023-08-06T11:23:03;96865.03;;;23.94;100.00
17635;BME280;8936;49.010;12.120;2023-08-06T11:25:30;96859.56;;;24.34;100.00
17635;BME280;8936;49.010;12.120;2023-08-06T11:27:57;96851.34;;;23.53;100.00
17635;BME280;8936;49.010;12.120;2023-08-06T11:30:23;96862.09;;;23.39;100.00
17635;BME280;8936;49.010;12.120;2023-08-06T11:32:50;96857.78;;;23.72;100.00
17635;BME280;8936;49.010;12.120;2023-08-06T11:35:16;96849.56;;;24.08;100.00
17635;BME280;8936;49.010;12.120;2023-08-06T11:37:43;96847.38;;;24.21;100.00
17635;BME280;8936;49.010;12.120;2023-08-06T11:40:11;96852.41;;;23.79;100.00
17635;BME280;8936;49.010;12.120;2023-08-06T11:42:37;96860.28;;;24.28;100.00
17635;BME280;8936;49.010;12.120;2023-08-06T11:45:04;96850.72;;;24.04;100.00
17635;BME280;8936;49.010;12.120;2023-08-06T11:47:30;96845.78;;;23.13;100.00
17635;BME280;8936;49.010;12.120;2023-08-06T11:49:57;96844.44;;;22.70;100.00
17635;BME280;8936;49.010;12.120;2023-08-06T11:52:23;96841.31;;;23.98;100.00
17635;BME280;8936;49.010;12.120;2023-08-06T11:54:59;96837.88;;;24.04;100.00
17635;BME280;8936;49.010;12.120;2023-08-06T11:57:27;96843.66;;;24.43;100.00
17635;BME280;8936;49.010;12.120;2023-08-06T11:59:57;96835.84;;;24.38;100.00
17635;BME280;8936;49.010;12.120;2023-08-06T12:02:24;96848.78;;;24.04;100.00
17635;BME280;8936;49.010;12.120;2023-08-06T12:05:00;96838.69;;;24.56;100.00
17635;BME280;8936;49.010;12.120;2023-08-06T12:07:28;96835.25;;;24.66;100.00
17635;BME280;8936;49.010;12.120;2023-08-06T12:09:55;96841.28;;;23.57;100.00
17635;BME280;8936;49.010;12.120;2023-08-06T12:12:21;96848.56;;;23.17;100.00
17635;BME280;8936;49.010;12.120;2023-08-06T12:14:49;96844.44;;;22.47;100.00
17635;BME280;8936;49.010;12.120;2023-08-06T12:17:15;96859.63;;;22.26;100.00
17635;BME280;8936;49.010;12.120;2023-08-06T12:19:42;96841.03;;;22.05;100.00
17635;BME280;8936;49.010;12.120;2023-08-06T12:22:08;96843.94;;;22.16;100.00
17635;BME280;8936;49.010;12.120;2023-08-06T12:24:34;96850.00;;;21.86;100.00
17635;BME280;8936;49.010;12.120;2023-08-06T12:27:01;96850.78;;;21.87;100.00
17635;BME280;8936;49.010;12.120;2023-08-06T12:29:28;96852.72;;;21.44;100.00
17635;BME280;8936;49.010;12.120;2023-08-06T12:31:55;96853.91;;;21.66;100.00
17635;BME280;8936;49.010;12.120;2023-08-06T12:34:22;96859.78;;;21.49;100.00
17635;BME280;8936;49.010;12.120;2023-08-06T12:36:48;96853.84;;;21.63;100.00
17635;BME280;8936;49.010;12.120;2023-08-06T12:39:14;96846.97;;;21.69;100.00
17635;BME280;8936;49.010;12.120;2023-08-06T12:41:41;96858.75;;;21.57;100.00
17635;BME280;8936;49.010;12.120;2023-08-06T12:44:08;96858.22;;;22.58;100.00
17635;BME280;8936;49.010;12.120;2023-08-06T12:46:35;96882.63;;;23.33;100.00
17635;BME280;8936;49.010;12.120;2023-08-06T12:49:02;96907.88;;;23.30;100.00